createdAt,value
2023-02-12T09:24:57.865Z,21.40
2023-02-12T09:33:56.549Z,20.27
2023-02-12T09:38:06.955Z,20.43
2023-02-12T09:42:33.014Z,21.43
2023-02-12T09:46:53.937Z,21.53
2023-02-12T09:51:51.338Z,22.03
2023-02-12T09:56:39.370Z,19.43
2023-02-12T10:00:53.269Z,19.43
2023-02-12T10:10:48.204Z,19.90
2023-02-12T10:15:17.660Z,21.10
2023-02-12T10:19:54.666Z,18.97
2023-02-12T10:29:24.366Z,19.30
2023-02-12T10:33:41.138Z,20.63
2023-02-12T10:37:59.791Z,19.33
2023-02-12T10:42:22.423Z,18.53
2023-02-12T10:46:43.328Z,19.10
2023-02-12T10:51:15.272Z,19.83
2023-02-12T10:55:30.004Z,19.83
2023-02-12T10:59:39.343Z,17.40
2023-02-12T11:03:48.717Z,18.80
2023-02-12T11:07:59.465Z,18.90
2023-02-12T11:12:21.978Z,18.63
2023-02-12T11:16:33.439Z,19.70
2023-02-12T11:20:56.028Z,19.10
2023-02-12T11:25:19.133Z,22.30
2023-02-12T11:29:28.520Z,19.13
2023-02-12T11:33:39.341Z,19.50
2023-02-12T11:37:56.293Z,19.23
2023-02-12T11:42:30.507Z,19.83
2023-02-12T11:46:40.669Z,19.40
2023-02-12T11:50:53.547Z,19.63
2023-02-12T11:55:06.548Z,20.40
2023-02-12T11:59:37.777Z,20.87
2023-02-12T12:04:00.744Z,21.07
2023-02-12T12:08:19.794Z,21.47
2023-02-12T12:12:53.034Z,19.50
2023-02-12T12:17:25.269Z,19.97
2023-02-12T12:21:42.200Z,20.70
2023-02-12T12:25:57.262Z,20.60
2023-02-12T12:30:17.831Z,20.50
2023-02-12T12:34:30.604Z,19.30
2023-02-12T12:38:49.392Z,19.23
2023-02-12T12:43:10.826Z,19.13
2023-02-12T12:47:28.654Z,19.60
2023-02-12T12:51:59.186Z,19.07
2023-02-12T12:56:54.256Z,20.53
2023-02-12T13:01:22.480Z,19.33
2023-02-12T13:05:58.821Z,20.50
2023-02-12T13:10:36.055Z,19.83
2023-02-12T13:14:56.551Z,19.63
2023-02-12T13:19:17.771Z,20.87
2023-02-12T13:23:40.344Z,19.97
2023-02-12T13:27:52.534Z,20.10
2023-02-12T13:32:06.303Z,19.70
2023-02-12T13:36:16.849Z,20.10
2023-02-12T13:40:28.020Z,21.37
2023-02-12T13:44:59.175Z,21.43
2023-02-12T13:49:36.926Z,20.07
2023-02-12T13:54:11.318Z,21.57
2023-02-12T13:59:07.437Z,21.50
2023-02-12T14:04:02.549Z,21.50
2023-02-12T14:08:36.410Z,20.17
2023-02-12T14:12:47.361Z,20.17
2023-02-12T14:16:57.555Z,20.23
2023-02-12T14:21:52.967Z,21.90
2023-02-12T14:26:07.564Z,20.90
2023-02-12T14:30:38.927Z,20.80
2023-02-12T14:34:52.245Z,20.33
2023-02-12T14:39:07.072Z,21.10
2023-02-12T14:43:56.619Z,20.53
2023-02-12T14:48:06.681Z,22.80
2023-02-12T14:52:21.449Z,22.00
2023-02-12T14:56:30.800Z,20.80
2023-02-12T15:00:43.457Z,22.40
2023-02-12T15:04:55.107Z,21.90
2023-02-12T15:09:10.597Z,21.83
2023-02-12T15:13:29.912Z,20.10
2023-02-12T15:17:44.057Z,20.90
2023-02-12T15:21:55.234Z,20.73
2023-02-12T15:26:06.248Z,23.90
2023-02-12T15:30:26.112Z,22.77
2023-02-12T15:34:42.160Z,22.13
2023-02-12T15:38:53.956Z,20.97
2023-02-12T15:43:05.027Z,22.07
2023-02-12T15:47:16.639Z,22.60
2023-02-12T15:51:32.180Z,22.53
2023-02-12T15:55:45.758Z,22.07
2023-02-12T15:59:56.767Z,23.90
2023-02-12T16:04:08.906Z,25.33
2023-02-12T16:08:21.808Z,22.57
2023-02-12T16:12:37.413Z,23.23
2023-02-12T16:16:49.907Z,23.17
2023-02-12T16:21:08.487Z,22.33
2023-02-12T16:25:25.178Z,24.73
2023-02-12T16:29:36.044Z,25.43
2023-02-12T16:33:49.811Z,24.30
2023-02-12T16:38:39.358Z,27.40
2023-02-12T16:43:27.566Z,24.07
2023-02-12T16:47:36.916Z,23.23
2023-02-12T16:51:47.093Z,25.20
2023-02-12T16:55:56.642Z,26.13
2023-02-12T17:00:09.577Z,25.47
2023-02-12T17:04:18.801Z,24.93
2023-02-12T17:08:28.355Z,26.23
2023-02-12T17:12:46.215Z,27.03
2023-02-12T17:16:56.912Z,25.90
2023-02-12T17:21:09.218Z,26.43
2023-02-12T17:25:18.607Z,26.97
2023-02-12T17:29:28.512Z,26.70
2023-02-12T17:33:39.564Z,25.83
2023-02-12T17:37:49.492Z,26.40
2023-02-12T17:42:00.544Z,25.07
2023-02-12T17:46:13.611Z,26.47
2023-02-12T17:50:24.545Z,27.17
2023-02-12T17:54:33.754Z,25.73
2023-02-12T17:58:43.903Z,25.30
2023-02-12T18:02:53.624Z,26.33
2023-02-12T18:07:04.290Z,25.70
2023-02-12T18:11:14.043Z,26.70
2023-02-12T18:15:23.500Z,27.90
2023-02-12T18:19:38.186Z,26.23
2023-02-12T18:23:56.594Z,25.40
2023-02-12T18:28:06.160Z,26.87
2023-02-12T18:32:16.552Z,26.43
2023-02-12T18:36:25.770Z,30.50
2023-02-12T18:40:36.640Z,25.63
2023-02-12T18:44:45.700Z,27.33
2023-02-12T18:48:55.322Z,31.07
2023-02-12T18:53:04.512Z,26.90
2023-02-12T18:57:38.080Z,27.53
2023-02-12T19:01:48.858Z,28.47
2023-02-12T19:06:05.259Z,26.93
2023-02-12T19:10:14.556Z,29.33
2023-02-12T19:14:26.618Z,26.00
2023-02-12T19:18:35.668Z,26.90
2023-02-12T19:22:46.541Z,26.10
2023-02-12T19:26:56.681Z,25.03
2023-02-12T19:31:19.479Z,26.47
2023-02-12T19:35:28.748Z,23.93
2023-02-12T19:39:38.063Z,26.37
2023-02-12T19:43:47.294Z,26.30
2023-02-12T19:47:57.897Z,31.33
2023-02-12T19:52:07.719Z,28.47
2023-02-12T19:56:17.688Z,27.80
2023-02-12T20:00:28.017Z,26.37
2023-02-12T20:04:38.868Z,27.93
2023-02-12T20:08:48.741Z,27.77
2023-02-12T20:12:58.164Z,26.33
2023-02-12T20:17:07.528Z,25.67
2023-02-12T20:21:22.210Z,25.50
2023-02-12T20:25:32.126Z,27.83
2023-02-12T20:29:41.630Z,23.83
2023-02-12T20:33:55.213Z,26.20
2023-02-12T20:38:06.458Z,29.50
2023-02-12T20:42:25.166Z,26.00
2023-02-12T20:46:40.778Z,27.80
2023-02-12T20:50:50.200Z,29.10
2023-02-12T20:55:01.542Z,27.60
2023-02-12T20:59:10.722Z,32.97
2023-02-12T21:03:19.955Z,29.00
2023-02-12T21:07:29.292Z,29.57
2023-02-12T21:11:42.510Z,28.67
2023-02-12T21:15:52.124Z,29.63
2023-02-12T21:20:01.643Z,28.70
2023-02-12T21:33:51.414Z,26.97
2023-02-12T22:36:51.182Z,25.47
2023-02-12T22:41:00.590Z,23.33
2023-02-12T22:45:10.593Z,24.80
2023-02-12T22:49:20.006Z,24.37
2023-02-12T22:53:30.943Z,25.07
2023-02-12T22:57:40.407Z,26.27
2023-02-12T23:01:49.805Z,24.03
2023-02-12T23:06:02.527Z,24.77
2023-02-12T23:10:14.181Z,25.53
2023-02-12T23:14:23.613Z,25.43
2023-02-12T23:18:33.845Z,25.70
2023-02-12T23:22:43.363Z,25.07
2023-02-12T23:26:54.473Z,24.37
2023-02-12T23:31:03.881Z,24.90
2023-02-12T23:35:13.389Z,24.70
2023-02-12T23:39:22.715Z,26.60
2023-02-12T23:43:33.840Z,24.03
2023-02-12T23:47:43.263Z,24.03
2023-02-12T23:51:55.324Z,25.40
2023-02-12T23:56:05.152Z,25.20
